Terminal Aerodrome Forecast
Issued by NWS

Home | Current Version | Previous Version | Text Only | Print | Product List | Glossary Off
Versions: 1 2 3 4 5 6 7 8 9 10 11 12 13 14 15 16 17 18 19 20

000
FTUS43 KABR 230645 AAA
TAFATY
TAF AMD
KATY 230645Z 2307/2406 36011KT P6SM SCT012
     FM230900 02014KT P6SM SKC
     FM231400 04012KT P6SM SCT020 BKN120
     FM232000 05015G22KT 5SM -SN BR OVC025
     FM232200 04020G28KT 3SM -SN BLSN BR OVC025
     FM240400 04021G29KT 3SM -SN BLSN BR OVC015=

USA.gov is the U.S. government's official web portal to all federal, state and local government web resources and services.